sensor_id;sensor_type;location;lat;lon;timestamp;P1;durP1;ratioP1;P2;durP2;ratioP2
7128;SDS011;3606;52.930;8.644;2023-10-09T00:01:49;4.93;;;3.03;;
7128;SDS011;3606;52.930;8.644;2023-10-09T00:04:15;5.30;;;2.90;;
7128;SDS011;3606;52.930;8.644;2023-10-09T00:06:45;7.67;;;2.90;;
7128;SDS011;3606;52.930;8.644;2023-10-09T00:09:11;7.47;;;3.23;;
7128;SDS011;3606;52.930;8.644;2023-10-09T00:11:49;4.40;;;2.80;;
7128;SDS011;3606;52.930;8.644;2023-10-09T00:14:21;3.73;;;2.90;;
7128;SDS011;3606;52.930;8.644;2023-10-09T00:16:47;7.90;;;3.17;;
7128;SDS011;3606;52.930;8.644;2023-10-09T00:19:21;5.10;;;2.70;;
7128;SDS011;3606;52.930;8.644;2023-10-09T00:21:56;4.63;;;2.87;;
7128;SDS011;3606;52.930;8.644;2023-10-09T00:24:23;6.53;;;2.87;;
7128;SDS011;3606;52.930;8.644;2023-10-09T00:26:52;5.87;;;3.20;;
7128;SDS011;3606;52.930;8.644;2023-10-09T00:29:36;3.60;;;2.70;;
7128;SDS011;3606;52.930;8.644;2023-10-09T00:32:08;7.60;;;3.03;;
7128;SDS011;3606;52.930;8.644;2023-10-09T00:34:44;5.50;;;3.03;;
7128;SDS011;3606;52.930;8.644;2023-10-09T00:37:10;5.57;;;3.23;;
7128;SDS011;3606;52.930;8.644;2023-10-09T00:39:38;2.90;;;2.60;;
7128;SDS011;3606;52.930;8.644;2023-10-09T00:42:03;5.80;;;3.40;;
7128;SDS011;3606;52.930;8.644;2023-10-09T00:44:31;5.43;;;3.13;;
7128;SDS011;3606;52.930;8.644;2023-10-09T00:47:08;8.67;;;3.20;;
7128;SDS011;3606;52.930;8.644;2023-10-09T00:49:46;5.67;;;3.10;;
7128;SDS011;3606;52.930;8.644;2023-10-09T00:52:24;7.77;;;3.07;;
7128;SDS011;3606;52.930;8.644;2023-10-09T00:54:57;6.07;;;2.73;;
7128;SDS011;3606;52.930;8.644;2023-10-09T00:57:29;3.90;;;2.90;;
7128;SDS011;3606;52.930;8.644;2023-10-09T00:59:59;5.87;;;3.60;;
7128;SDS011;3606;52.930;8.644;2023-10-09T01:02:26;5.23;;;3.13;;
7128;SDS011;3606;52.930;8.644;2023-10-09T01:05:03;4.97;;;3.17;;
7128;SDS011;3606;52.930;8.644;2023-10-09T01:07:43;5.97;;;3.23;;
7128;SDS011;3606;52.930;8.644;2023-10-09T01:10:10;5.47;;;3.50;;
7128;SDS011;3606;52.930;8.644;2023-10-09T01:12:36;6.53;;;3.47;;
7128;SDS011;3606;52.930;8.644;2023-10-09T01:15:39;5.70;;;3.43;;
7128;SDS011;3606;52.930;8.644;2023-10-09T01:18:09;5.57;;;3.27;;
7128;SDS011;3606;52.930;8.644;2023-10-09T01:20:34;6.63;;;3.40;;
7128;SDS011;3606;52.930;8.644;2023-10-09T01:23:07;6.17;;;3.30;;
7128;SDS011;3606;52.930;8.644;2023-10-09T01:25:34;6.07;;;3.27;;
7128;SDS011;3606;52.930;8.644;2023-10-09T01:28:08;7.57;;;3.60;;
7128;SDS011;3606;52.930;8.644;2023-10-09T01:30:34;6.57;;;4.13;;
7128;SDS011;3606;52.930;8.644;2023-10-09T01:32:59;6.67;;;3.60;;
7128;SDS011;3606;52.930;8.644;2023-10-09T01:35:37;6.50;;;3.53;;
7128;SDS011;3606;52.930;8.644;2023-10-09T01:38:12;4.93;;;3.40;;
7128;SDS011;3606;52.930;8.644;2023-10-09T01:40:38;5.23;;;3.47;;
7128;SDS011;3606;52.930;8.644;2023-10-09T01:43:04;6.80;;;3.33;;
7128;SDS011;3606;52.930;8.644;2023-10-09T01:45:34;8.60;;;3.53;;
7128;SDS011;3606;52.930;8.644;2023-10-09T01:48:11;6.07;;;3.43;;
7128;SDS011;3606;52.930;8.644;2023-10-09T01:50:39;6.10;;;3.67;;
7128;SDS011;3606;52.930;8.644;2023-10-09T01:53:07;5.63;;;3.73;;
7128;SDS011;3606;52.930;8.644;2023-10-09T01:55:33;7.73;;;3.60;;
7128;SDS011;3606;52.930;8.644;2023-10-09T01:58:06;10.33;;;3.50;;
7128;SDS011;3606;52.930;8.644;2023-10-09T02:00:47;6.17;;;3.53;;
7128;SDS011;3606;52.930;8.644;2023-10-09T02:03:20;5.73;;;3.90;;
7128;SDS011;3606;52.930;8.644;2023-10-09T02:05:49;9.93;;;4.23;;
7128;SDS011;3606;52.930;8.644;2023-10-09T02:08:17;6.90;;;3.97;;
7128;SDS011;3606;52.930;8.644;2023-10-09T02:10:47;5.73;;;3.63;;
7128;SDS011;3606;52.930;8.644;2023-10-09T02:13:13;7.17;;;3.43;;
7128;SDS011;3606;52.930;8.644;2023-10-09T02:15:54;6.50;;;3.50;;
7128;SDS011;3606;52.930;8.644;2023-10-09T02:18:24;10.57;;;4.13;;
7128;SDS011;3606;52.930;8.644;2023-10-09T02:23:24;4.83;;;3.43;;
7128;SDS011;3606;52.930;8.644;2023-10-09T02:25:58;6.00;;;3.60;;
7128;SDS011;3606;52.930;8.644;2023-10-09T02:28:29;8.83;;;3.80;;
7128;SDS011;3606;52.930;8.644;2023-10-09T02:31:00;11.63;;;3.67;;
7128;SDS011;3606;52.930;8.644;2023-10-09T02:33:36;8.10;;;3.83;;
7128;SDS011;3606;52.930;8.644;2023-10-09T02:36:04;7.13;;;3.50;;
7128;SDS011;3606;52.930;8.644;2023-10-09T02:38:33;7.63;;;4.10;;
7128;SDS011;3606;52.930;8.644;2023-10-09T02:41:00;6.00;;;4.17;;
7128;SDS011;3606;52.930;8.644;2023-10-09T02:43:30;10.83;;;4.43;;
7128;SDS011;3606;52.930;8.644;2023-10-09T02:46:05;8.83;;;3.90;;
7128;SDS011;3606;52.930;8.644;2023-10-09T02:48:46;5.23;;;3.73;;
7128;SDS011;3606;52.930;8.644;2023-10-09T02:51:27;5.93;;;3.83;;
7128;SDS011;3606;52.930;8.644;2023-10-09T02:53:57;8.17;;;4.10;;
7128;SDS011;3606;52.930;8.644;2023-10-09T02:56:53;4.80;;;3.73;;
7128;SDS011;3606;52.930;8.644;2023-10-09T02:59:31;4.90;;;4.40;;
7128;SDS011;3606;52.930;8.644;2023-10-09T03:01:57;6.73;;;3.47;;
7128;SDS011;3606;52.930;8.644;2023-10-09T03:04:24;4.00;;;3.43;;
7128;SDS011;3606;52.930;8.644;2023-10-09T03:06:58;8.63;;;4.47;;
7128;SDS011;3606;52.930;8.644;2023-10-09T03:09:25;7.43;;;3.90;;
7128;SDS011;3606;52.930;8.644;2023-10-09T03:11:56;5.13;;;4.27;;
7128;SDS011;3606;52.930;8.644;2023-10-09T03:14:30;4.87;;;4.37;;
7128;SDS011;3606;52.930;8.644;2023-10-09T03:17:00;7.60;;;4.20;;
7128;SDS011;3606;52.930;8.644;2023-10-09T03:19:27;6.33;;;4.13;;
7128;SDS011;3606;52.930;8.644;2023-10-09T03:21:54;12.53;;;5.20;;
7128;SDS011;3606;52.930;8.644;2023-10-09T03:24:22;11.20;;;5.20;;
7128;SDS011;3606;52.930;8.644;2023-10-09T03:26:48;8.77;;;4.87;;
7128;SDS011;3606;52.930;8.644;2023-10-09T03:29:20;11.07;;;5.23;;
7128;SDS011;3606;52.930;8.644;2023-10-09T03:31:46;7.50;;;4.80;;
7128;SDS011;3606;52.930;8.644;2023-10-09T03:34:12;8.23;;;5.13;;
7128;SDS011;3606;52.930;8.644;2023-10-09T03:36:38;7.60;;;5.23;;
7128;SDS011;3606;52.930;8.644;2023-10-09T03:39:07;8.00;;;5.47;;
7128;SDS011;3606;52.930;8.644;2023-10-09T03:41:45;12.20;;;5.50;;
7128;SDS011;3606;52.930;8.644;2023-10-09T03:44:13;10.57;;;5.73;;
7128;SDS011;3606;52.930;8.644;2023-10-09T03:46:39;8.57;;;5.80;;
7128;SDS011;3606;52.930;8.644;2023-10-09T03:49:09;14.23;;;5.87;;
7128;SDS011;3606;52.930;8.644;2023-10-09T03:51:36;12.23;;;6.20;;
7128;SDS011;3606;52.930;8.644;2023-10-09T03:54:02;16.33;;;6.43;;
7128;SDS011;3606;52.930;8.644;2023-10-09T03:56:34;17.13;;;6.77;;
7128;SDS011;3606;52.930;8.644;2023-10-09T03:59:00;13.13;;;6.80;;
7128;SDS011;3606;52.930;8.644;2023-10-09T04:01:29;13.80;;;6.80;;
7128;SDS011;3606;52.930;8.644;2023-10-09T04:03:57;13.30;;;6.23;;
7128;SDS011;3606;52.930;8.644;2023-10-09T04:06:27;12.00;;;6.93;;
7128;SDS011;3606;52.930;8.644;2023-10-09T04:09:04;11.67;;;6.33;;
7128;SDS011;3606;52.930;8.644;2023-10-09T04:11:43;13.77;;;6.63;;
7128;SDS011;3606;52.930;8.644;2023-10-09T04:14:15;10.63;;;6.77;;
7128;SDS011;3606;52.930;8.644;2023-10-09T04:16:56;15.77;;;8.20;;
7128;SDS011;3606;52.930;8.644;2023-10-09T04:19:51;14.57;;;7.80;;
7128;SDS011;3606;52.930;8.644;2023-10-09T04:22:39;14.97;;;7.27;;
7128;SDS011;3606;52.930;8.644;2023-10-09T04:25:14;15.30;;;7.77;;
7128;SDS011;3606;52.930;8.644;2023-10-09T04:27:40;17.90;;;8.80;;
7128;SDS011;3606;52.930;8.644;2023-10-09T04:30:06;16.60;;;8.87;;
7128;SDS011;3606;52.930;8.644;2023-10-09T04:32:33;16.80;;;9.17;;
7128;SDS011;3606;52.930;8.644;2023-10-09T04:35:00;18.23;;;9.57;;
7128;SDS011;3606;52.930;8.644;2023-10-09T04:37:44;16.27;;;10.20;;
7128;SDS011;3606;52.930;8.644;2023-10-09T04:40:17;18.53;;;10.53;;
7128;SDS011;3606;52.930;8.644;2023-10-09T04:43:02;20.00;;;11.37;;
7128;SDS011;3606;52.930;8.644;2023-10-09T04:45:31;19.70;;;10.60;;
7128;SDS011;3606;52.930;8.644;2023-10-09T04:48:12;22.23;;;11.50;;
7128;SDS011;3606;52.930;8.644;2023-10-09T04:50:57;20.43;;;10.40;;
7128;SDS011;3606;52.930;8.644;2023-10-09T04:53:43;24.93;;;11.10;;
7128;SDS011;3606;52.930;8.644;2023-10-09T04:56:12;22.90;;;12.37;;
7128;SDS011;3606;52.930;8.644;2023-10-09T04:58:41;20.67;;;11.47;;
7128;SDS011;3606;52.930;8.644;2023-10-09T05:01:06;21.97;;;11.97;;
7128;SDS011;3606;52.930;8.644;2023-10-09T05:03:38;24.50;;;13.10;;
7128;SDS011;3606;52.930;8.644;2023-10-09T05:06:04;24.67;;;11.77;;
7128;SDS011;3606;52.930;8.644;2023-10-09T05:08:49;26.20;;;13.50;;
7128;SDS011;3606;52.930;8.644;2023-10-09T05:11:14;25.77;;;13.67;;
7128;SDS011;3606;52.930;8.644;2023-10-09T05:13:59;26.53;;;13.23;;
7128;SDS011;3606;52.930;8.644;2023-10-09T05:16:37;29.40;;;13.70;;
7128;SDS011;3606;52.930;8.644;2023-10-09T05:19:19;30.73;;;14.73;;
7128;SDS011;3606;52.930;8.644;2023-10-09T05:22:06;28.30;;;14.90;;
7128;SDS011;3606;52.930;8.644;2023-10-09T05:24:54;27.07;;;13.60;;
7128;SDS011;3606;52.930;8.644;2023-10-09T05:27:23;30.73;;;15.00;;
7128;SDS011;3606;52.930;8.644;2023-10-09T05:30:08;25.30;;;14.20;;
7128;SDS011;3606;52.930;8.644;2023-10-09T05:32:52;28.27;;;15.03;;
7128;SDS011;3606;52.930;8.644;2023-10-09T05:35:45;35.97;;;16.73;;
7128;SDS011;3606;52.930;8.644;2023-10-09T05:38:30;30.20;;;16.63;;
7128;SDS011;3606;52.930;8.644;2023-10-09T05:41:00;28.00;;;15.23;;
7128;SDS011;3606;52.930;8.644;2023-10-09T05:43:46;34.27;;;17.20;;
7128;SDS011;3606;52.930;8.644;2023-10-09T05:46:30;36.77;;;18.40;;
7128;SDS011;3606;52.930;8.644;2023-10-09T05:49:00;42.87;;;19.33;;
7128;SDS011;3606;52.930;8.644;2023-10-09T05:51:34;35.33;;;18.33;;
7128;SDS011;3606;52.930;8.644;2023-10-09T05:54:06;39.63;;;18.73;;
7128;SDS011;3606;52.930;8.644;2023-10-09T05:56:51;44.33;;;19.83;;
7128;SDS011;3606;52.930;8.644;2023-10-09T05:59:45;38.90;;;20.47;;
7128;SDS011;3606;52.930;8.644;2023-10-09T06:02:30;39.50;;;20.70;;
7128;SDS011;3606;52.930;8.644;2023-10-09T06:05:15;50.87;;;23.10;;
7128;SDS011;3606;52.930;8.644;2023-10-09T06:07:58;39.63;;;21.53;;
7128;SDS011;3606;52.930;8.644;2023-10-09T06:10:32;48.57;;;22.40;;
7128;SDS011;3606;52.930;8.644;2023-10-09T06:13:05;46.70;;;23.17;;
7128;SDS011;3606;52.930;8.644;2023-10-09T06:15:38;42.17;;;23.43;;
7128;SDS011;3606;52.930;8.644;2023-10-09T06:18:12;54.10;;;23.70;;
7128;SDS011;3606;52.930;8.644;2023-10-09T06:20:50;51.27;;;23.60;;
7128;SDS011;3606;52.930;8.644;2023-10-09T06:23:34;45.87;;;22.43;;
7128;SDS011;3606;52.930;8.644;2023-10-09T06:26:19;52.67;;;25.50;;
7128;SDS011;3606;52.930;8.644;2023-10-09T06:28:51;45.60;;;23.50;;
7128;SDS011;3606;52.930;8.644;2023-10-09T06:31:37;47.20;;;24.27;;
7128;SDS011;3606;52.930;8.644;2023-10-09T06:34:21;46.83;;;24.77;;
7128;SDS011;3606;52.930;8.644;2023-10-09T06:36:57;47.87;;;24.07;;
7128;SDS011;3606;52.930;8.644;2023-10-09T06:39:45;49.83;;;25.73;;
7128;SDS011;3606;52.930;8.644;2023-10-09T06:42:23;51.40;;;25.50;;
7128;SDS011;3606;52.930;8.644;2023-10-09T06:45:04;57.03;;;25.67;;
7128;SDS011;3606;52.930;8.644;2023-10-09T06:47:33;55.63;;;27.27;;
7128;SDS011;3606;52.930;8.644;2023-10-09T06:50:09;53.97;;;26.90;;
7128;SDS011;3606;52.930;8.644;2023-10-09T06:52:53;54.43;;;26.77;;
7128;SDS011;3606;52.930;8.644;2023-10-09T06:55:26;62.07;;;28.77;;
7128;SDS011;3606;52.930;8.644;2023-10-09T06:58:13;52.03;;;26.57;;
7128;SDS011;3606;52.930;8.644;2023-10-09T07:00:41;56.37;;;28.53;;
7128;SDS011;3606;52.930;8.644;2023-10-09T07:03:39;55.47;;;27.90;;
7128;SDS011;3606;52.930;8.644;2023-10-09T07:06:17;65.20;;;29.23;;
7128;SDS011;3606;52.930;8.644;2023-10-09T07:08:53;52.37;;;27.33;;
7128;SDS011;3606;52.930;8.644;2023-10-09T07:11:46;58.13;;;29.40;;
7128;SDS011;3606;52.930;8.644;2023-10-09T07:14:17;60.20;;;29.37;;
7128;SDS011;3606;52.930;8.644;2023-10-09T07:16:56;59.67;;;28.40;;
7128;SDS011;3606;52.930;8.644;2023-10-09T07:19:22;56.30;;;28.60;;
7128;SDS011;3606;52.930;8.644;2023-10-09T07:22:03;54.90;;;27.17;;
7128;SDS011;3606;52.930;8.644;2023-10-09T07:24:31;52.17;;;27.87;;
7128;SDS011;3606;52.930;8.644;2023-10-09T07:27:08;51.70;;;29.47;;
7128;SDS011;3606;52.930;8.644;2023-10-09T07:29:37;57.23;;;29.13;;
7128;SDS011;3606;52.930;8.644;2023-10-09T07:32:18;50.37;;;27.93;;
7128;SDS011;3606;52.930;8.644;2023-10-09T07:34:50;54.80;;;29.50;;
7128;SDS011;3606;52.930;8.644;2023-10-09T07:37:21;60.57;;;29.23;;
7128;SDS011;3606;52.930;8.644;2023-10-09T07:40:01;56.47;;;29.27;;
7128;SDS011;3606;52.930;8.644;2023-10-09T07:42:32;58.97;;;29.27;;
7128;SDS011;3606;52.930;8.644;2023-10-09T07:45:06;56.70;;;29.17;;
7128;SDS011;3606;52.930;8.644;2023-10-09T07:47:48;57.70;;;28.60;;
7128;SDS011;3606;52.930;8.644;2023-10-09T07:50:27;56.60;;;28.83;;
7128;SDS011;3606;52.930;8.644;2023-10-09T07:53:06;55.77;;;28.83;;
7128;SDS011;3606;52.930;8.644;2023-10-09T07:55:50;54.33;;;28.33;;
7128;SDS011;3606;52.930;8.644;2023-10-09T07:58:20;51.50;;;27.80;;
7128;SDS011;3606;52.930;8.644;2023-10-09T08:00:50;61.30;;;30.47;;
7128;SDS011;3606;52.930;8.644;2023-10-09T08:03:33;60.87;;;29.20;;
7128;SDS011;3606;52.930;8.644;2023-10-09T08:06:00;63.47;;;28.17;;
7128;SDS011;3606;52.930;8.644;2023-10-09T08:08:52;63.87;;;30.00;;
7128;SDS011;3606;52.930;8.644;2023-10-09T08:11:36;54.23;;;28.17;;
7128;SDS011;3606;52.930;8.644;2023-10-09T08:14:10;52.93;;;27.93;;
7128;SDS011;3606;52.930;8.644;2023-10-09T08:16:55;54.53;;;28.90;;
7128;SDS011;3606;52.930;8.644;2023-10-09T08:19:39;55.57;;;28.47;;
7128;SDS011;3606;52.930;8.644;2023-10-09T08:24:52;46.20;;;27.67;;
7128;SDS011;3606;52.930;8.644;2023-10-09T08:27:23;55.07;;;27.70;;
7128;SDS011;3606;52.930;8.644;2023-10-09T08:30:11;49.07;;;27.00;;
7128;SDS011;3606;52.930;8.644;2023-10-09T08:32:43;43.67;;;25.30;;
7128;SDS011;3606;52.930;8.644;2023-10-09T08:38:00;44.83;;;25.37;;
7128;SDS011;3606;52.930;8.644;2023-10-09T08:40:33;44.37;;;24.90;;
7128;SDS011;3606;52.930;8.644;2023-10-09T08:45:39;49.17;;;25.03;;
7128;SDS011;3606;52.930;8.644;2023-10-09T08:48:10;45.63;;;24.77;;
7128;SDS011;3606;52.930;8.644;2023-10-09T08:50:43;45.43;;;26.20;;
7128;SDS011;3606;52.930;8.644;2023-10-09T08:53:10;46.70;;;24.63;;
7128;SDS011;3606;52.930;8.644;2023-10-09T08:55:37;44.47;;;24.17;;
7128;SDS011;3606;52.930;8.644;2023-10-09T08:58:06;46.60;;;25.33;;
7128;SDS011;3606;52.930;8.644;2023-10-09T09:00:43;55.47;;;23.90;;
7128;SDS011;3606;52.930;8.644;2023-10-09T09:03:11;45.23;;;24.00;;
7128;SDS011;3606;52.930;8.644;2023-10-09T09:05:37;43.50;;;23.87;;
7128;SDS011;3606;52.930;8.644;2023-10-09T09:08:03;41.40;;;23.97;;
7128;SDS011;3606;52.930;8.644;2023-10-09T09:10:29;45.73;;;24.70;;
7128;SDS011;3606;52.930;8.644;2023-10-09T09:13:02;44.07;;;23.70;;
7128;SDS011;3606;52.930;8.644;2023-10-09T09:15:29;43.40;;;23.77;;
7128;SDS011;3606;52.930;8.644;2023-10-09T09:18:04;44.13;;;23.20;;
7128;SDS011;3606;52.930;8.644;2023-10-09T09:20:31;46.77;;;23.83;;
7128;SDS011;3606;52.930;8.644;2023-10-09T09:23:01;48.43;;;23.97;;
7128;SDS011;3606;52.930;8.644;2023-10-09T09:25:43;40.93;;;22.37;;
7128;SDS011;3606;52.930;8.644;2023-10-09T09:28:13;37.30;;;21.80;;
7128;SDS011;3606;52.930;8.644;2023-10-09T09:30:46;36.90;;;21.13;;
7128;SDS011;3606;52.930;8.644;2023-10-09T09:33:24;36.47;;;21.27;;
7128;SDS011;3606;52.930;8.644;2023-10-09T09:36:06;36.20;;;21.73;;
7128;SDS011;3606;52.930;8.644;2023-10-09T09:38:33;34.20;;;20.47;;
7128;SDS011;3606;52.930;8.644;2023-10-09T09:41:07;32.17;;;19.97;;
7128;SDS011;3606;52.930;8.644;2023-10-09T09:43:34;31.87;;;20.03;;
7128;SDS011;3606;52.930;8.644;2023-10-09T09:46:05;36.03;;;19.97;;
7128;SDS011;3606;52.930;8.644;2023-10-09T09:48:42;30.90;;;19.57;;
7128;SDS011;3606;52.930;8.644;2023-10-09T09:51:12;34.60;;;20.33;;
7128;SDS011;3606;52.930;8.644;2023-10-09T09:53:42;36.97;;;19.23;;
7128;SDS011;3606;52.930;8.644;2023-10-09T09:56:14;39.60;;;20.73;;
7128;SDS011;3606;52.930;8.644;2023-10-09T09:58:44;39.50;;;20.10;;
7128;SDS011;3606;52.930;8.644;2023-10-09T10:01:18;37.63;;;21.47;;
7128;SDS011;3606;52.930;8.644;2023-10-09T10:03:56;33.07;;;19.47;;
7128;SDS011;3606;52.930;8.644;2023-10-09T10:06:26;34.23;;;20.00;;
7128;SDS011;3606;52.930;8.644;2023-10-09T10:08:57;32.63;;;19.37;;
7128;SDS011;3606;52.930;8.644;2023-10-09T10:14:14;27.63;;;18.17;;
7128;SDS011;3606;52.930;8.644;2023-10-09T10:19:50;32.33;;;19.67;;
7128;SDS011;3606;52.930;8.644;2023-10-09T10:22:28;34.23;;;18.53;;
7128;SDS011;3606;52.930;8.644;2023-10-09T10:24:58;31.37;;;19.47;;
7128;SDS011;3606;52.930;8.644;2023-10-09T10:27:27;36.03;;;19.47;;
7128;SDS011;3606;52.930;8.644;2023-10-09T10:32:56;28.43;;;18.10;;
7128;SDS011;3606;52.930;8.644;2023-10-09T10:35:34;28.13;;;16.60;;
7128;SDS011;3606;52.930;8.644;2023-10-09T10:38:53;29.30;;;17.53;;
7128;SDS011;3606;52.930;8.644;2023-10-09T10:41:08;28.67;;;15.80;;
7128;SDS011;3606;52.930;8.644;2023-10-09T10:43:42;33.40;;;16.33;;
7128;SDS011;3606;52.930;8.644;2023-10-09T10:46:17;34.53;;;17.80;;
7128;SDS011;3606;52.930;8.644;2023-10-09T10:48:55;26.83;;;15.67;;
7128;SDS011;3606;52.930;8.644;2023-10-09T10:51:25;27.17;;;14.80;;
7128;SDS011;3606;52.930;8.644;2023-10-09T10:54:08;24.83;;;15.93;;
7128;SDS011;3606;52.930;8.644;2023-10-09T10:56:52;25.40;;;14.13;;
7128;SDS011;3606;52.930;8.644;2023-10-09T10:59:18;23.33;;;14.50;;
7128;SDS011;3606;52.930;8.644;2023-10-09T11:01:51;20.87;;;14.03;;
7128;SDS011;3606;52.930;8.644;2023-10-09T11:04:24;26.37;;;14.80;;
7128;SDS011;3606;52.930;8.644;2023-10-09T11:07:00;23.67;;;14.67;;
7128;SDS011;3606;52.930;8.644;2023-10-09T11:15:29;18.90;;;13.23;;
7128;SDS011;3606;52.930;8.644;2023-10-09T11:18:10;24.20;;;15.50;;
7128;SDS011;3606;52.930;8.644;2023-10-09T11:20:48;19.17;;;14.47;;
7128;SDS011;3606;52.930;8.644;2023-10-09T11:23:23;20.63;;;14.80;;
7128;SDS011;3606;52.930;8.644;2023-10-09T11:25:58;24.63;;;15.30;;
7128;SDS011;3606;52.930;8.644;2023-10-09T11:28:43;23.23;;;15.50;;
7128;SDS011;3606;52.930;8.644;2023-10-09T11:31:22;23.33;;;15.37;;
7128;SDS011;3606;52.930;8.644;2023-10-09T11:33:48;24.00;;;16.03;;
7128;SDS011;3606;52.930;8.644;2023-10-09T11:36:16;22.10;;;14.93;;
7128;SDS011;3606;52.930;8.644;2023-10-09T11:38:57;21.87;;;14.10;;
7128;SDS011;3606;52.930;8.644;2023-10-09T11:41:43;24.53;;;14.80;;
7128;SDS011;3606;52.930;8.644;2023-10-09T11:44:09;21.63;;;13.83;;
7128;SDS011;3606;52.930;8.644;2023-10-09T11:46:57;19.70;;;13.00;;
7128;SDS011;3606;52.930;8.644;2023-10-09T11:49:23;19.07;;;13.50;;
7128;SDS011;3606;52.930;8.644;2023-10-09T11:52:06;17.20;;;13.00;;
7128;SDS011;3606;52.930;8.644;2023-10-09T11:54:38;16.70;;;13.03;;
7128;SDS011;3606;52.930;8.644;2023-10-09T11:57:03;16.37;;;12.03;;
7128;SDS011;3606;52.930;8.644;2023-10-09T11:59:29;14.40;;;10.77;;
7128;SDS011;3606;52.930;8.644;2023-10-09T12:02:03;15.67;;;9.53;;
7128;SDS011;3606;52.930;8.644;2023-10-09T12:04:29;11.23;;;8.97;;
7128;SDS011;3606;52.930;8.644;2023-10-09T12:06:55;10.47;;;8.20;;
7128;SDS011;3606;52.930;8.644;2023-10-09T12:09:35;12.07;;;8.20;;
7128;SDS011;3606;52.930;8.644;2023-10-09T12:12:05;9.83;;;8.13;;
7128;SDS011;3606;52.930;8.644;2023-10-09T12:14:35;10.50;;;7.00;;
7128;SDS011;3606;52.930;8.644;2023-10-09T12:17:05;10.57;;;7.30;;
7128;SDS011;3606;52.930;8.644;2023-10-09T12:19:35;7.57;;;6.33;;
7128;SDS011;3606;52.930;8.644;2023-10-09T12:22:02;9.30;;;7.00;;
7128;SDS011;3606;52.930;8.644;2023-10-09T12:24:30;8.97;;;5.93;;
7128;SDS011;3606;52.930;8.644;2023-10-09T12:26:56;8.03;;;6.20;;
7128;SDS011;3606;52.930;8.644;2023-10-09T12:29:22;7.40;;;5.53;;
7128;SDS011;3606;52.930;8.644;2023-10-09T12:31:49;8.30;;;5.80;;
7128;SDS011;3606;52.930;8.644;2023-10-09T12:34:26;9.37;;;5.57;;
7128;SDS011;3606;52.930;8.644;2023-10-09T12:36:55;9.60;;;5.63;;
7128;SDS011;3606;52.930;8.644;2023-10-09T12:39:21;10.00;;;5.97;;
7128;SDS011;3606;52.930;8.644;2023-10-09T12:41:47;7.40;;;5.63;;
7128;SDS011;3606;52.930;8.644;2023-10-09T12:44:13;8.43;;;5.23;;
7128;SDS011;3606;52.930;8.644;2023-10-09T12:46:45;7.10;;;4.87;;
7128;SDS011;3606;52.930;8.644;2023-10-09T12:49:20;7.70;;;5.07;;
7128;SDS011;3606;52.930;8.644;2023-10-09T12:51:50;7.20;;;5.20;;
7128;SDS011;3606;52.930;8.644;2023-10-09T12:54:19;8.37;;;6.60;;
7128;SDS011;3606;52.930;8.644;2023-10-09T12:56:55;11.27;;;5.20;;
7128;SDS011;3606;52.930;8.644;2023-10-09T12:59:21;7.23;;;4.60;;
7128;SDS011;3606;52.930;8.644;2023-10-09T13:01:49;7.17;;;3.77;;
7128;SDS011;3606;52.930;8.644;2023-10-09T13:04:18;6.07;;;4.50;;
7128;SDS011;3606;52.930;8.644;2023-10-09T13:06:47;7.47;;;4.40;;
7128;SDS011;3606;52.930;8.644;2023-10-09T13:09:17;5.97;;;4.00;;
7128;SDS011;3606;52.930;8.644;2023-10-09T13:11:58;4.30;;;3.80;;
7128;SDS011;3606;52.930;8.644;2023-10-09T13:14:25;5.67;;;3.93;;
7128;SDS011;3606;52.930;8.644;2023-10-09T13:16:56;4.47;;;3.63;;
7128;SDS011;3606;52.930;8.644;2023-10-09T13:19:22;5.27;;;3.70;;
7128;SDS011;3606;52.930;8.644;2023-10-09T13:21:49;6.93;;;3.40;;
7128;SDS011;3606;52.930;8.644;2023-10-09T13:24:15;8.00;;;4.10;;
7128;SDS011;3606;52.930;8.644;2023-10-09T13:26:41;7.73;;;3.83;;
7128;SDS011;3606;52.930;8.644;2023-10-09T13:29:10;6.00;;;3.50;;
7128;SDS011;3606;52.930;8.644;2023-10-09T13:31:36;6.03;;;3.30;;
7128;SDS011;3606;52.930;8.644;2023-10-09T13:34:06;6.90;;;3.50;;
7128;SDS011;3606;52.930;8.644;2023-10-09T13:36:34;7.50;;;3.67;;
7128;SDS011;3606;52.930;8.644;2023-10-09T13:39:06;6.57;;;4.00;;
7128;SDS011;3606;52.930;8.644;2023-10-09T13:41:52;6.43;;;4.03;;
7128;SDS011;3606;52.930;8.644;2023-10-09T13:44:26;4.97;;;3.77;;
7128;SDS011;3606;52.930;8.644;2023-10-09T13:46:56;7.73;;;3.90;;
7128;SDS011;3606;52.930;8.644;2023-10-09T13:49:22;8.30;;;3.93;;
7128;SDS011;3606;52.930;8.644;2023-10-09T13:51:49;7.83;;;3.70;;
7128;SDS011;3606;52.930;8.644;2023-10-09T13:54:16;8.00;;;3.87;;
7128;SDS011;3606;52.930;8.644;2023-10-09T13:57:08;8.00;;;3.83;;
7128;SDS011;3606;52.930;8.644;2023-10-09T13:59:36;6.33;;;4.00;;
7128;SDS011;3606;52.930;8.644;2023-10-09T14:02:02;6.13;;;3.73;;
7128;SDS011;3606;52.930;8.644;2023-10-09T14:04:34;7.50;;;4.00;;
7128;SDS011;3606;52.930;8.644;2023-10-09T14:07:00;7.03;;;3.80;;
7128;SDS011;3606;52.930;8.644;2023-10-09T14:09:27;8.97;;;3.90;;
7128;SDS011;3606;52.930;8.644;2023-10-09T14:11:59;9.60;;;4.30;;
7128;SDS011;3606;52.930;8.644;2023-10-09T14:14:37;7.90;;;4.27;;
7128;SDS011;3606;52.930;8.644;2023-10-09T14:17:20;10.13;;;4.07;;
7128;SDS011;3606;52.930;8.644;2023-10-09T14:19:53;13.43;;;4.53;;
7128;SDS011;3606;52.930;8.644;2023-10-09T14:22:22;5.73;;;3.97;;
7128;SDS011;3606;52.930;8.644;2023-10-09T14:24:51;8.63;;;4.13;;
7128;SDS011;3606;52.930;8.644;2023-10-09T14:27:23;10.87;;;4.00;;
7128;SDS011;3606;52.930;8.644;2023-10-09T14:30:00;8.40;;;4.10;;
7128;SDS011;3606;52.930;8.644;2023-10-09T14:32:25;9.83;;;3.80;;
7128;SDS011;3606;52.930;8.644;2023-10-09T14:34:59;9.17;;;4.50;;
7128;SDS011;3606;52.930;8.644;2023-10-09T14:37:27;10.70;;;4.23;;
7128;SDS011;3606;52.930;8.644;2023-10-09T14:39:53;9.73;;;4.10;;
7128;SDS011;3606;52.930;8.644;2023-10-09T14:42:21;7.50;;;4.00;;
7128;SDS011;3606;52.930;8.644;2023-10-09T14:44:49;11.00;;;3.57;;
7128;SDS011;3606;52.930;8.644;2023-10-09T14:47:15;8.87;;;4.20;;
7128;SDS011;3606;52.930;8.644;2023-10-09T14:49:41;9.67;;;4.00;;
7128;SDS011;3606;52.930;8.644;2023-10-09T14:52:11;11.33;;;4.43;;
7128;SDS011;3606;52.930;8.644;2023-10-09T14:54:41;7.33;;;4.23;;
7128;SDS011;3606;52.930;8.644;2023-10-09T14:57:07;8.07;;;4.10;;
7128;SDS011;3606;52.930;8.644;2023-10-09T14:59:33;8.20;;;3.77;;
7128;SDS011;3606;52.930;8.644;2023-10-09T15:01:59;11.83;;;4.40;;
7128;SDS011;3606;52.930;8.644;2023-10-09T15:04:25;7.33;;;3.87;;
7128;SDS011;3606;52.930;8.644;2023-10-09T15:06:51;7.60;;;3.97;;
7128;SDS011;3606;52.930;8.644;2023-10-09T15:09:17;9.93;;;4.07;;
7128;SDS011;3606;52.930;8.644;2023-10-09T15:11:53;14.53;;;4.30;;
7128;SDS011;3606;52.930;8.644;2023-10-09T15:14:19;7.13;;;3.90;;
7128;SDS011;3606;52.930;8.644;2023-10-09T15:16:45;8.57;;;3.90;;
7128;SDS011;3606;52.930;8.644;2023-10-09T15:19:12;7.47;;;3.77;;
7128;SDS011;3606;52.930;8.644;2023-10-09T15:21:38;8.90;;;3.87;;
7128;SDS011;3606;52.930;8.644;2023-10-09T15:24:14;8.57;;;4.53;;
7128;SDS011;3606;52.930;8.644;2023-10-09T15:26:47;8.40;;;3.77;;
7128;SDS011;3606;52.930;8.644;2023-10-09T15:29:23;11.93;;;3.87;;
7128;SDS011;3606;52.930;8.644;2023-10-09T15:31:58;4.50;;;2.80;;
7128;SDS011;3606;52.930;8.644;2023-10-09T15:34:29;8.63;;;3.70;;
7128;SDS011;3606;52.930;8.644;2023-10-09T15:36:56;11.03;;;5.37;;
7128;SDS011;3606;52.930;8.644;2023-10-09T15:39:22;9.07;;;4.67;;
7128;SDS011;3606;52.930;8.644;2023-10-09T15:41:48;13.47;;;5.63;;
7128;SDS011;3606;52.930;8.644;2023-10-09T15:44:15;6.93;;;3.90;;
7128;SDS011;3606;52.930;8.644;2023-10-09T15:46:42;9.13;;;4.30;;
7128;SDS011;3606;52.930;8.644;2023-10-09T15:49:10;7.83;;;3.80;;
7128;SDS011;3606;52.930;8.644;2023-10-09T15:51:38;8.00;;;3.57;;
7128;SDS011;3606;52.930;8.644;2023-10-09T15:54:04;8.07;;;3.27;;
7128;SDS011;3606;52.930;8.644;2023-10-09T15:56:30;9.17;;;3.10;;
7128;SDS011;3606;52.930;8.644;2023-10-09T15:58:56;11.70;;;4.27;;
7128;SDS011;3606;52.930;8.644;2023-10-09T16:01:21;5.37;;;3.07;;